Weather observations for the past three days for
Williams/Clark Memorial Airport
Metric (Imperial)
Date Time (mst) Wind (kph) Vis. (km) Weather Sky Cond. Temperature (ºC) Relative Humidity Wind Chill (°C) Heat Index (°C) Pressure Precipitation (cm)
Air Dwpt 6 hour altimeter (cm) sea level (mb) 1 hr 3 hr 6 hr
Max. Min.
08 18:15 W 20 16.09 Fair CLR 24 -12 8% 24 76.45 0.0
08 17:55 NW 26 16.09 Fair CLR 24 -13 7% 24 76.45 0.0
08 17:35 W 24 G 39 16.09 Fair CLR 25 -12 8% 24 76.45 0.0
08 17:15 NW 20 G 37 16.09 Fair CLR 25 -13 7% 24 76.45 0.0
08 16:55 NW 17 G 33 16.09 Fair CLR 26 -13 7% 25 76.45 0.0
08 16:35 W 28 16.09 Fair CLR 26 -12 7% 25 76.45 0.0
08 16:15 NW 20 G 41 16.09 Fair CLR 26 -11 8% 25 76.45 0.0
08 15:55 W 24 G 35 16.09 Fair CLR 26 -11 8% 25 76.45 0.0
08 15:35 W 19 16.09 A Few Clouds FEW120 26 -9 9% 25 76.48 0.0
08 15:15 W 24 G 35 16.09 Partly Cloudy SCT120 25 -9 10% 24 76.5 0.0
08 14:55 NW 22 G 31 16.09 Partly Cloudy SCT120 24 -8 11% 24 76.5 0.0
08 14:35 W 19 G 35 16.09 Fair CLR 26 -8 10% 25 76.53 0.0
08 14:15 W 26 G 46 16.09 Partly Cloudy SCT120 27 -8 9% 26 76.53 0.0
08 13:55 Vrbl 9 G 33 16.09 Partly Cloudy SCT120 25 -8 11% 24 76.53 0.0
08 13:35 NW 28 16.09 Partly Cloudy SCT120 25 -8 11% 24 76.56 0.0
08 13:15 W 17 G 39 16.09 Fair CLR 26 -8 10% 25 76.58 0.0
08 12:55 Vrbl 6 G 28 16.09 Fair CLR 25 -8 11% 24 76.58 0.0
08 12:35 W 20 G 30 16.09 Fair CLR 24 -8 11% 24 76.61 0.0
08 12:15 W 22 G 31 16.09 Fair CLR 24 -8 11% 24 76.63 0.0
08 11:55 SW 15 G 31 16.09 Fair CLR 24 -8 11% 24 76.63 0.0
08 11:35 SW 19 G 28 16.09 Fair CLR 24 -8 11% 24 76.63 0.0
08 11:15 W 15 16.09 Fair CLR 23 -8 12% 76.66 0.0
08 10:55 NW 15 G 28 16.09 Fair CLR 23 -8 12% 76.68 0.0
08 10:35 Vrbl 11 G 28 16.09 Fair CLR 23 -8 12% 76.66 0.0
08 10:15 N 6 G 24 16.09 Fair CLR 23 -8 12% 76.68 0.0
08 09:55 NW 15 G 24 16.09 Fair CLR 22 -8 13% 76.68 0.0
08 09:35 N 19 16.09 Fair CLR 22 -8 13% 76.68 0.0
08 09:15 NW 17 16.09 Fair CLR 21 -8 13% 76.68 0.0
08 08:55 NW 11 16.09 Fair CLR 20 -8 14% 76.68 0.0
08 08:35 Vrbl 6 16.09 Fair CLR 20 -8 14% 76.68 0.0
08 08:15 N 9 16.09 Fair CLR 19 -7 17% 76.68 0.0
08 07:55 NW 6 16.09 Fair CLR 18 -8 16% 76.68 0.0
08 07:35 Calm 16.09 Fair CLR 16 -3 27% 76.68 0.0
08 07:15 Calm 16.09 Fair CLR 13 -4 31% 76.68 0.0
08 06:55 SE 6 16.09 Fair CLR 10 -5 35% 76.66 0.0
08 06:35 S 7 16.09 Fair CLR 7 -7 37% 6 76.66 0.0
08 06:15 S 11 16.09 Fair CLR 5 -8 39% 3 76.63 0.0
08 05:55 S 13 16.09 Fair CLR 3 -8 45% 0 76.63 0.0
08 05:35 S 13 16.09 Fair CLR 3 -9 41% 0 76.61 0.0
08 05:15 S 13 16.09 Fair CLR 3 -9 41% 0 76.61 0.0
08 04:55 S 15 16.09 Fair CLR 3 -9 41% -0 76.61 0.0
08 04:35 S 13 16.09 Fair CLR 4 -9 39% 1 76.61 0.0
08 04:15 S 15 16.09 Fair CLR 3 -9 41% -0 76.61 0.0
08 03:55 S 13 16.09 Fair CLR 3 -9 41% 0 76.61 0.0
08 03:35 S 13 16.09 Fair CLR 4 -10 36% 1 76.63 0.0
08 03:15 S 9 16.09 Fair CLR 5 -11 31% 3 76.61 0.0
08 02:55 S 11 16.09 Fair CLR 6 -11 29% 4 76.58 0.0
08 02:35 Calm 16.09 Fair CLR 5 -10 33% 76.58 0.0
08 02:15 S 19 16.09 Fair CLR 5 -10 33% 2 76.58 0.0
08 01:55 S 19 16.09 Fair CLR 5 -10 33% 2 76.58 0.0
08 01:35 S 19 16.09 Fair CLR 5 -10 33% 2 76.58 0.0
08 01:15 S 17 16.09 Fair CLR 5 -10 33% 2 76.61 0.0
08 00:55 S 17 16.09 Fair CLR 5 -10 33% 2 76.61 0.0
08 00:35 S 19 16.09 Fair CLR 6 -10 31% 3 76.63 0.0
08 00:15 S 19 16.09 Fair CLR 6 -10 31% 3 76.63 0.0
07 23:55 S 13 16.09 Fair CLR 6 -9 34% 4 76.63 0.0
07 23:35 S 17 16.09 Fair CLR 7 -10 29% 4 76.63 0.0
07 23:15 SE 11 16.09 Fair CLR 10 -11 22% 9 76.63 0.0
07 22:55 S 13 16.09 Fair CLR 8 -11 25% 6 76.63 0.0
07 22:35 S 13 16.09 Fair CLR 8 -10 27% 6 76.63 0.0
07 22:15 S 15 16.09 Fair CLR 9 -10 25% 7 76.63 0.0
07 21:55 S 17 16.09 Fair CLR 9 -9 27% 7 76.63 0.0
07 21:35 S 13 16.09 Fair CLR 9 -9 27% 7 76.63 0.0
07 21:15 S 13 16.09 Fair CLR 11 -10 22% 76.63 0.0
07 20:55 S 11 16.09 Fair CLR 12 -10 21% 76.61 0.0
07 20:35 S 13 16.09 Fair CLR 11 -9 24% 76.61 0.0
07 20:15 Calm 16.09 Fair CLR 13 -10 19% 76.58 0.0
07 19:55 W 6 16.09 Fair CLR 16 -11 15% 76.56 0.0
07 19:35 NW 9 16.09 Fair CLR 17 -12 13% 76.53 0.0
07 19:15 N 7 16.09 Fair CLR 18 -12 12% 76.5 0.0
07 18:55 NW 11 16.09 Fair CLR 19 -11 12% 76.5 0.0
07 18:35 N 13 16.09 Fair CLR 20 -12 10% 76.48 0.0
07 18:15 NW 15 16.09 Fair CLR 20 -12 10% 76.48 0.0
07 17:55 NW 17 G 31 16.09 Fair CLR 21 -12 10% 76.48 0.0
07 17:35 NW 17 G 30 16.09 Fair CLR 21 -12 10% 76.48 0.0
07 17:15 N 13 16.09 Fair CLR 22 -12 9% 76.45 0.0
07 16:55 NW 19 G 28 16.09 Fair CLR 22 -13 8% 76.48 0.0
07 16:35 NE 13 G 22 16.09 Fair CLR 22 -18 6% 76.48 0.0
07 16:15 N 11 G 26 16.09 Fair CLR 22 -16 7% 76.45 0.0
07 15:55 NW 15 G 30 16.09 Fair CLR 22 -14 8% 76.48 0.0
07 15:35 N 19 G 30 16.09 Fair CLR 22 -15 7% 76.5 0.0
07 15:15 Vrbl 9 G 46 16.09 Fair CLR 22 -16 7% 76.5 0.0
07 14:55 NW 15 16.09 Fair CLR 22 -15 7% 76.53 0.0
07 14:35 NW 15 G 30 16.09 Fair CLR 22 -15 7% 76.56 0.0
07 14:15 N 20 G 30 16.09 Fair CLR 22 -14 8% 76.56 0.0
07 13:15 W 15 G 33 16.09 Fair CLR 21 -14 8% 76.61 0.0
07 12:55 N 24 G 35 16.09 Fair CLR 21 -13 9% 76.63 0.0
07 12:35 Vrbl 17 G 30 16.09 Fair CLR 21 -12 10% 76.63 0.0
07 12:15 N 15 16.09 Fair CLR 20 -12 10% 76.66 0.0
07 11:55 NE 13 G 26 16.09 Fair CLR 20 -12 10% 76.68 0.0
07 11:35 N 17 G 26 16.09 Fair CLR 19 -12 11% 76.68 0.0
07 11:15 NE 13 G 31 16.09 Fair CLR 19 -12 11% 76.71 0.0
07 10:55 Vrbl 6 G 28 16.09 Fair CLR 18 -13 11% 76.73 0.0
07 10:35 Vrbl 11 G 30 16.09 Fair CLR 18 -9 15% 76.71 0.0
07 10:15 NW 19 16.09 Fair CLR 18 -8 16% 76.73 0.0
07 09:55 NW 13 G 24 16.09 Fair CLR 18 -7 18% 76.73 0.0
07 09:35 N 11 G 28 16.09 Fair CLR 17 -7 19% 76.73 0.0
07 09:15 NE 13 16.09 Fair CLR 16 -6 22% 76.76 0.0
07 08:55 Calm 16.09 Fair CLR 15 -7 21% 76.76 0.0
07 08:35 E 7 16.09 Fair CLR 15 -6 23% 76.76 0.0
07 08:15 Vrbl 9 16.09 Fair CLR 14 -6 25% 76.78 0.0
07 07:55 SE 13 16.09 Fair CLR 13 -6 26% 76.78 0.0
07 07:35 SE 15 16.09 Fair CLR 12 -7 26% 76.78 0.0
07 07:15 SE 17 16.09 Fair CLR 10 -7 30% 8 76.78 0.0
07 06:55 SE 13 16.09 Fair CLR 9 -7 32% 7 76.78 0.0
07 06:35 S 13 16.09 Fair CLR 8 -6 37% 6 76.78 0.0
07 06:15 SE 13 16.09 Fair CLR 6 -6 42% 4 76.76 0.0
07 05:55 S 11 16.09 Fair CLR 5 -7 42% 3 76.76 0.0
07 05:35 SE 9 16.09 Fair CLR 5 -7 42% 3 76.76 0.0
07 05:15 SE 9 16.09 Fair CLR 5 -6 45% 3 76.76 0.0
07 04:55 S 15 16.09 Fair CLR 5 -6 45% 2 76.76 0.0
07 04:35 S 19 16.09 Fair CLR 5 -6 45% 2 76.73 0.0
07 04:15 S 17 16.09 Fair CLR 5 -5 49% 2 76.73 0.0
07 03:55 SE 17 16.09 Fair CLR 6 -5 46% 3 76.73 0.0
07 03:35 SE 19 16.09 Fair CLR 6 -5 46% 3 76.76 0.0
07 03:15 S 15 16.09 Fair CLR 5 -5 49% 2 76.76 0.0
07 02:55 SE 9 16.09 Fair CLR 5 -4 53% 3 76.76 0.0
07 02:35 S 15 16.09 Fair CLR 5 -4 53% 2 76.76 0.0
07 02:15 S 13 16.09 Fair CLR 5 -4 53% 2 76.76 0.0
07 01:55 S 11 16.09 Fair CLR 4 -4 56% 2 76.76 0.0
07 01:35 Vrbl 11 16.09 Fair CLR 5 -4 53% 3 76.76 0.0
07 01:15 SE 13 16.09 Fair CLR 3 -6 52% 0 76.76 0.0
07 00:55 S 13 16.09 Fair CLR 5 -6 45% 2 76.73 0.0
07 00:35 SE 17 16.09 Fair CLR 3 -5 56% -1 76.73 0.0
07 00:15 S 17 16.09 Fair CLR 4 -5 52% 1 76.73 0.0
06 23:55 S 13 16.09 Fair CLR 4 -5 52% 1 76.71 0.0
06 23:35 S 11 G 24 16.09 Fair CLR 4 -5 52% 2 76.71 0.0
06 23:15 Calm 16.09 Fair CLR 5 -5 49% 76.71 0.0
06 22:55 S 11 16.09 Fair CLR 5 -5 49% 3 76.68 0.0
06 22:35 S 9 16.09 Fair CLR 6 -5 46% 4 76.68 0.0
06 22:15 S 9 16.09 Fair CLR 6 -5 46% 4 76.68 0.0
06 21:55 S 9 16.09 Fair CLR 7 -5 43% 5 76.66 0.0
06 21:35 S 11 16.09 A Few Clouds FEW090 8 -5 40% 6 76.66 0.0
06 21:15 S 9 16.09 Mostly Cloudy BKN090 9 -5 37% 8 76.63 0.0
06 20:55 S 11 16.09 Mostly Cloudy BKN090 9 -5 37% 8 76.63 0.0
06 20:35 S 7 16.09 Partly Cloudy SCT090 9 -5 37% 8 76.61 0.0
06 20:15 Calm 16.09 Fair CLR 13 -5 28% 76.58 0.0
06 19:55 Calm 16.09 Fair CLR 14 -6 25% 76.58 0.0
06 19:35 NW 9 16.09 A Few Clouds FEW090 14 -6 25% 76.56 0.0
06 19:15 NW 11 16.09 A Few Clouds FEW090 15 -6 23% 76.53 0.0
06 18:55 NW 7 16.09 Fair CLR 16 -6 22% 76.53 0.0
06 18:35 N 11 16.09 Fair CLR 17 -6 20% 76.5 0.0
06 18:15 N 11 G 24 16.09 Fair CLR 17 -6 20% 76.5 0.0
06 17:55 N 19 16.09 Fair CLR 17 -6 20% 76.5 0.0
06 17:35 N 11 G 28 16.09 Fair CLR 18 -6 19% 76.5 0.0
06 17:15 NW 19 G 33 16.09 Fair CLR 18 -6 19% 76.48 0.0
06 16:55 N 17 G 39 16.09 Fair CLR 18 -6 19% 76.48 0.0
06 16:35 N 19 G 43 16.09 Fair CLR 19 -6 18% 76.48 0.0
06 16:15 NW 20 G 30 16.09 Fair CLR 19 -7 17% 76.48 0.0
06 15:55 N 22 16.09 Fair CLR 18 -7 18% 76.48 0.0
06 15:35 NW 22 G 33 16.09 Fair CLR 19 -7 17% 76.48 0.0
06 15:15 N 15 G 35 16.09 Fair CLR 18 -5 21% 76.48 0.0
06 14:55 N 22 G 33 16.09 Fair CLR 18 -7 18% 76.5 0.0
06 14:35 N 13 G 26 16.09 A Few Clouds FEW080 18 -5 21% 76.5 0.0
06 14:15 N 33 16.09 A Few Clouds and Breezy FEW075 17 -5 22% 76.5 0.0
06 13:55 NW 19 G 35 16.09 Partly Cloudy SCT075 18 -4 22% 76.53 0.0
06 13:35 N 20 G 35 16.09 A Few Clouds FEW075 17 -3 25% 76.53 0.0
06 13:15 NW 24 G 37 16.09 Partly Cloudy SCT075 17 -4 24% 76.5 0.0
06 12:55 NW 17 G 41 16.09 Partly Cloudy SCT070 SCT080 17 -3 25% 76.53 0.0
06 12:35 NW 22 G 35 16.09 A Few Clouds FEW065 FEW075 17 -3 25% 76.53 0.0
06 12:15 NW 28 G 39 16.09 A Few Clouds FEW065 16 -3 27% 76.53 0.0
06 11:55 NW 26 G 39 16.09 Fair CLR 16 -3 27% 76.56 0.0
06 11:35 N 22 16.09 A Few Clouds FEW060 15 -3 29% 76.56 0.0
06 11:15 Vrbl 7 G 31 16.09 Fair CLR 15 -3 29% 76.56 0.0
06 10:55 N 19 16.09 Fair CLR 15 -3 29% 76.56 0.0
06 10:35 Vrbl 9 G 28 16.09 Fair CLR 14 -3 31% 76.56 0.0
06 10:15 NW 19 16.09 Fair CLR 13 -3 33% 76.56 0.0
06 09:55 NW 17 G 28 16.09 Fair CLR 13 -4 31% 76.53 0.0
06 09:35 NW 15 G 26 16.09 Fair CLR 12 -4 33% 76.53 0.0
06 09:15 NW 13 16.09 Fair CLR 11 -3 38% 76.53 0.0
06 08:55 W 15 16.09 Fair CLR 11 -3 38% 76.53 0.0
06 08:35 NW 11 16.09 Fair CLR 10 -3 40% 9 76.53 0.0
06 08:15 NW 17 16.09 Fair CLR 10 -3 40% 8 76.5 0.0
06 07:55 W 13 16.09 Fair CLR 9 -3 43% 7 76.5 0.0
06 07:35 NW 7 16.09 Fair CLR 8 -3 46% 7 76.48 0.0
06 07:15 Vrbl 7 16.09 Fair CLR 7 -3 49% 6 76.48 0.0
06 06:55 Calm 16.09 Fair CLR 4 -3 61% 76.45 0.0
06 06:35 SE 6 16.09 Fair CLR 2 -3 70% 76.45 0.0
06 06:15 S 9 16.09 Fair CLR 0 -4 75% -3 76.43 0.0
06 05:55 S 9 16.09 Fair CLR -1 -4 80% -4 76.4 0.0
06 05:35 S 7 16.09 Fair CLR -1 -4 80% -3 76.4 0.0
06 05:15 S 7 16.09 Fair CLR -2 -5 80% -4 76.38 0.0
06 04:55 Calm 16.09 A Few Clouds FEW045 0 -5 69% 76.38 0.0
06 04:35 W 7 16.09 Fair CLR 3 -4 60% 1 76.38 0.0
06 04:15 Calm 16.09 Fair CLR 1 -4 70% 76.38 0.0
06 03:55 E 9 16.09 Fair CLR -1 -4 80% -4 76.35 0.0
06 03:35 SE 11 16.09 Fair CLR -1 -4 80% -4 76.35 0.0
06 03:15 S 9 16.09 Fair CLR -1 -4 80% -4 76.33 0.0
06 02:55 S 7 16.09 Fair CLR -1 -4 80% -3 76.33 0.0
06 02:35 S 9 16.09 Fair CLR -1 -4 80% -4 76.33 0.0
06 02:15 S 6 16.09 Fair CLR -1 -4 80% 76.33 0.0
06 01:55 S 9 16.09 Fair CLR -1 -5 75% -4 76.33 0.0
06 01:35 Calm 16.09 A Few Clouds FEW048 -1 -5 75% 76.33 0.0
06 01:15 Calm 16.09 Fair CLR 0 -5 69% 76.33 0.0
06 00:55 SW 9 16.09 Fair CLR 2 -4 65% -0 76.33 0.0
06 00:35 SW 6 16.09 Fair CLR 2 -4 65% 76.35 0.0
06 00:15 S 6 16.09 Fair CLR 2 -5 60% 76.35 0.0
05 23:55 SE 9 16.09 Fair CLR 2 -4 65% -0 76.33 0.0
05 23:35 S 9 16.09 Fair CLR 2 -4 65% -0 76.3 0.0
05 22:55 Calm 16.09 A Few Clouds FEW085 4 -4 56% 76.28 0.0
05 22:35 SW 7 16.09 Mostly Cloudy FEW075 BKN090 4 -4 56% 2 76.3 0.0
05 22:15 SW 11 16.09 Overcast BKN075 OVC090 5 -3 57% 3 76.28 0.0
05 21:55 W 11 16.09 Mostly Cloudy FEW049 SCT055 BKN075 5 -3 57% 3 76.3 0.0
05 21:35 SW 11 16.09 Overcast SCT048 BKN055 OVC065 6 -4 49% 4 76.28 0.0
05 21:15 SW 9 16.09 Overcast SCT050 OVC065 6 -3 53% 4 76.25 0.0
05 20:55 S 6 16.09 Overcast BKN060 OVC070 6 0 66% 76.25 0.0
05 20:35 SE 9 16.09 Mostly Cloudy FEW045 SCT050 BKN065 6 0 66% 4 76.23 0.0
05 20:15 SE 9 16.09 Overcast SCT046 OVC075 6 0 66% 4 76.2 0.0
05 19:55 E 6 16.09 Overcast FEW045 BKN075 OVC085 6 1 71% 76.17 0.0
05 19:35 Calm 16.09 Mostly Cloudy FEW010 SCT040 BKN047 6 1 71% 76.17 0.0
05 19:15 SW 13 G 28 11.27 Light Rain FEW011 SCT033 BKN046 6 0 66% 4 76.15 0.0
05 18:55 NW 15 16.09 Mostly Cloudy FEW026 SCT050 BKN070 6 0 66% 3 76.15 0.0
05 18:35 W 19 16.09 Mostly Cloudy FEW024 SCT037 BKN055 6 1 71% 3 76.12 0.0
Date Time (mst) Wind (kph) Vis. (km) Weather Sky Cond. Air Dwpt Max. Min. Relative Humidity Wind Chill (°C) Heat Index (°C) altimeter (cm) sea level (mb) 1 hr 3 hr 6 hr
6 hour
Temperature (ºC) Pressure Precipitation (cm)